Time;durP1;ratioP1;P1;durP2;ratioP2;P2;SDS_P1;SDS_P2;PMS_P1;PMS_P2;Temp;Humidity;BMP_temperature;BMP_pressure;BME280_temperature;BME280_humidity;BME280_pressure;Samples;Min_cycle;Max_cycle;Signal;HPM_P1;HPM_P2
2023/07/28 00:00:43;;;;;;;5.13;3.90;;;22.50;83.80;;;;;;5048012;28;20029;-57
2023/07/28 00:03:09;;;;;;;5.45;3.25;;;22.50;83.80;;;;;;5046816;28;20029;-57
2023/07/28 00:05:35;;;;;;;4.25;3.25;;;22.50;83.90;;;;;;5047889;28;20017;-56
2023/07/28 00:08:01;;;;;;;7.70;3.40;;;22.50;84.00;;;;;;5046720;28;20056;-57
2023/07/28 00:10:26;;;;;;;5.40;3.50;;;22.40;84.00;;;;;;5046480;28;20466;-57
2023/07/28 00:12:52;;;;;;;4.03;3.63;;;22.40;84.10;;;;;;5046430;28;20416;-56
2023/07/28 00:15:17;;;;;;;5.35;3.38;;;22.40;84.30;;;;;;5047688;28;20386;-57
2023/07/28 00:17:44;;;;;;;3.80;2.90;;;22.40;84.50;;;;;;5047496;28;20053;-57
2023/07/28 00:20:10;;;;;;;5.90;3.00;;;22.30;84.50;;;;;;5046220;28;20089;-56
2023/07/28 00:22:36;;;;;;;4.10;2.97;;;22.30;84.60;;;;;;5047633;28;20082;-57
2023/07/28 00:25:01;;;;;;;3.15;2.85;;;22.20;84.70;;;;;;5047650;28;20021;-56
2023/07/28 00:27:27;;;;;;;4.90;3.10;;;22.20;84.70;;;;;;5047643;28;20033;-57
2023/07/28 00:29:52;;;;;;;4.93;2.50;;;22.20;84.70;;;;;;5046247;28;20044;-56
2023/07/28 00:32:18;;;;;;;2.55;2.35;;;22.20;84.80;;;;;;5047410;28;20068;-57
2023/07/28 00:34:43;;;;;;;3.35;2.78;;;22.20;84.80;;;;;;5047508;28;20022;-56
2023/07/28 00:37:09;;;;;;;2.70;2.50;;;22.10;84.80;;;;;;5047443;28;20034;-56
2023/07/28 00:39:34;;;;;;;3.78;2.60;;;22.10;84.90;;;;;;5045855;28;20029;-57
2023/07/28 00:42:00;;;;;;;3.55;2.55;;;22.10;85.20;;;;;;5047142;28;20030;-57
2023/07/28 00:44:25;;;;;;;6.22;2.45;;;22.10;85.30;;;;;;5047111;28;20044;-57
2023/07/28 00:46:51;;;;;;;2.83;2.15;;;22.00;85.50;;;;;;5045916;28;20026;-56
2023/07/28 00:49:16;;;;;;;5.63;2.25;;;22.00;85.50;;;;;;5045773;28;20033;-57
2023/07/28 00:51:42;;;;;;;2.50;2.30;;;22.00;85.70;;;;;;5045663;28;20039;-56
2023/07/28 00:54:07;;;;;;;4.82;3.00;;;22.00;85.70;;;;;;5045907;28;20029;-56
2023/07/28 00:56:33;;;;;;;3.03;2.30;;;22.00;85.40;;;;;;5045889;28;20034;-57
2023/07/28 00:58:58;;;;;;;4.28;2.35;;;22.00;85.30;;;;;;5045664;28;20106;-57
2023/07/28 01:01:24;;;;;;;5.03;2.60;;;22.00;85.40;;;;;;5045579;28;20034;-57
2023/07/28 01:03:50;;;;;;;2.97;2.30;;;22.00;85.50;;;;;;5046771;28;20080;-57
2023/07/28 01:06:20;;;;;;;2.95;2.42;;;22.00;85.40;;;;;;5045523;28;20056;-57
2023/07/28 01:08:47;;;;;;;3.08;2.50;;;22.00;85.60;;;;;;5045442;28;20068;-56
2023/07/28 01:11:14;;;;;;;4.00;2.50;;;22.00;85.60;;;;;;5045433;28;20041;-57
2023/07/28 01:13:39;;;;;;;6.07;2.60;;;22.00;85.80;;;;;;5046564;28;20076;-56
2023/07/28 01:16:05;;;;;;;5.75;2.40;;;21.90;85.80;;;;;;5045283;28;20037;-57
2023/07/28 01:18:30;;;;;;;4.53;2.22;;;21.90;85.90;;;;;;5045388;28;20017;-57
2023/07/28 01:20:57;;;;;;;3.67;2.08;;;21.90;86.10;;;;;;5045239;28;20034;-56
2023/07/28 01:23:40;;;;;;;3.40;2.50;;;21.90;86.30;;;;;;5045390;28;20025;-57
2023/07/28 01:26:08;;;;;;;6.22;2.35;;;21.80;86.30;;;;;;5045507;28;20026;-56
2023/07/28 01:28:34;;;;;;;4.22;2.38;;;21.80;86.40;;;;;;5028927;28;20021;-56
2023/07/28 01:31:02;;;;;;;2.80;2.08;;;21.80;86.60;;;;;;5045134;28;20032;-56
2023/07/28 01:33:27;;;;;;;3.50;2.33;;;21.90;86.60;;;;;;5045296;28;20057;-56
2023/07/28 01:35:53;;;;;;;6.63;2.22;;;21.80;86.60;;;;;;5046196;28;20037;-56
2023/07/28 01:38:19;;;;;;;2.58;1.90;;;21.90;86.60;;;;;;5045293;28;20086;-57
2023/07/28 01:40:44;;;;;;;4.90;2.60;;;21.80;86.40;;;;;;5028410;28;20033;-57
2023/07/28 01:43:10;;;;;;;4.03;2.45;;;21.80;86.50;;;;;;5044913;28;20030;-56
2023/07/28 01:45:35;;;;;;;3.35;2.30;;;21.90;86.60;;;;;;5045047;28;20030;-57
2023/07/28 01:48:01;;;;;;;2.90;2.40;;;21.80;86.60;;;;;;5044889;28;20112;-56
2023/07/28 01:50:26;;;;;;;5.13;2.55;;;21.80;86.70;;;;;;5046228;28;20068;-56
2023/07/28 01:52:52;;;;;;;3.50;2.95;;;21.80;87.10;;;;;;5045040;28;20041;-57
2023/07/28 01:55:17;;;;;;;7.50;2.50;;;21.80;87.00;;;;;;5046152;28;20037;-56
2023/07/28 01:57:59;;;;;;;4.45;2.75;;;21.70;87.10;;;;;;5045912;28;20060;-56
2023/07/28 02:00:25;;;;;;;3.58;2.40;;;21.70;87.20;;;;;;5048965;28;20056;-56
2023/07/28 02:02:50;;;;;;;3.35;2.17;;;21.70;87.50;;;;;;5049093;28;20025;-56
2023/07/28 02:05:16;;;;;;;2.67;2.40;;;21.70;87.50;;;;;;5049013;28;20057;-56
2023/07/28 02:07:42;;;;;;;4.00;2.65;;;21.70;87.60;;;;;;5048784;28;20032;-56
2023/07/28 02:10:08;;;;;;;3.85;2.47;;;21.60;87.70;;;;;;5048811;28;20048;-56
2023/07/28 02:12:33;;;;;;;2.75;2.00;;;21.70;87.80;;;;;;5048443;28;20092;-57
2023/07/28 02:14:59;;;;;;;2.90;2.40;;;21.60;87.70;;;;;;5050159;28;20165;-56
2023/07/28 02:17:25;;;;;;;4.05;2.80;;;21.70;87.60;;;;;;5048557;28;20037;-56
2023/07/28 02:19:50;;;;;;;5.10;3.20;;;21.70;87.60;;;;;;5048728;28;20034;-57
2023/07/28 02:22:16;;;;;;;5.57;3.28;;;21.60;87.50;;;;;;5049787;28;20500;-57
2023/07/28 02:24:41;;;;;;;6.93;2.80;;;21.60;87.50;;;;;;5048651;28;20036;-57
2023/07/28 02:27:07;;;;;;;2.60;2.28;;;21.60;87.60;;;;;;5048561;28;20042;-56
2023/07/28 02:29:32;;;;;;;4.18;2.60;;;21.60;87.70;;;;;;5049736;28;20116;-57
2023/07/28 02:31:58;;;;;;;2.92;2.63;;;21.60;87.60;;;;;;5048628;28;20044;-56
2023/07/28 02:34:23;;;;;;;6.10;2.78;;;21.60;87.60;;;;;;5049677;28;20037;-56
2023/07/28 02:36:49;;;;;;;2.95;2.45;;;21.60;87.60;;;;;;5048408;28;20038;-57
2023/07/28 02:39:14;;;;;;;4.88;2.63;;;21.70;87.60;;;;;;5048009;28;20108;-57
2023/07/28 02:41:40;;;;;;;3.25;2.35;;;21.60;87.60;;;;;;5048396;28;20029;-56
2023/07/28 02:44:05;;;;;;;4.20;2.65;;;21.60;87.70;;;;;;5048124;28;20049;-57
2023/07/28 02:46:31;;;;;;;3.65;2.63;;;21.60;87.70;;;;;;5047929;28;20033;-56
2023/07/28 02:48:57;;;;;;;3.70;2.95;;;21.60;87.70;;;;;;5049433;28;20156;-56
2023/07/28 02:51:22;;;;;;;5.32;2.83;;;21.70;87.60;;;;;;5049301;28;20036;-57
2023/07/28 02:53:48;;;;;;;3.75;2.63;;;21.70;87.30;;;;;;5049348;28;20025;-56
2023/07/28 02:56:13;;;;;;;3.80;2.75;;;21.70;87.20;;;;;;5049054;28;20034;-57
2023/07/28 02:58:39;;;;;;;3.08;2.78;;;21.70;87.40;;;;;;5048023;28;20540;-56
2023/07/28 03:01:04;;;;;;;4.38;2.50;;;21.60;88.00;;;;;;5047685;28;20072;-56
2023/07/28 03:03:30;;;;;;;2.90;2.60;;;21.60;87.40;;;;;;5049254;28;20017;-57
2023/07/28 03:05:56;;;;;;;3.38;3.08;;;21.60;87.40;;;;;;5049054;28;20041;-56
2023/07/28 03:08:21;;;;;;;4.97;3.08;;;21.60;88.20;;;;;;5048003;28;20024;-56
2023/07/28 03:10:47;;;;;;;6.13;2.60;;;21.60;87.90;;;;;;5047699;28;20470;-57
2023/07/28 03:13:12;;;;;;;6.85;2.80;;;21.60;88.10;;;;;;5047893;28;20029;-56
2023/07/28 03:15:38;;;;;;;5.38;2.70;;;21.60;88.20;;;;;;5030982;28;20113;-57
2023/07/28 03:18:04;;;;;;;6.90;2.55;;;21.60;88.30;;;;;;5047303;28;20044;-56
2023/07/28 03:20:29;;;;;;;2.60;2.40;;;21.60;88.10;;;;;;5048837;28;20068;-57
2023/07/28 03:22:55;;;;;;;4.93;2.90;;;21.60;88.10;;;;;;5047716;28;20021;-57
2023/07/28 03:25:21;;;;;;;3.58;2.75;;;21.50;88.10;;;;;;5047410;28;20048;-56
2023/07/28 03:27:46;;;;;;;3.85;2.13;;;21.60;88.20;;;;;;5048529;28;20029;-57
2023/07/28 03:30:13;;;;;;;3.88;3.03;;;21.60;88.20;;;;;;5048784;28;20026;-57
2023/07/28 03:32:39;;;;;;;4.05;3.47;;;21.60;88.30;;;;;;5047352;28;20042;-56
2023/07/28 03:35:05;;;;;;;3.63;3.30;;;21.50;88.60;;;;;;5030654;28;20483;-57
2023/07/28 03:37:31;;;;;;;4.13;2.90;;;21.50;88.50;;;;;;5047347;28;20064;-56
2023/07/28 03:39:57;;;;;;;4.55;2.95;;;21.50;88.20;;;;;;5047345;28;20033;-56
2023/07/28 03:42:22;;;;;;;4.00;2.95;;;21.50;88.00;;;;;;5048118;28;20029;-56
2023/07/28 03:44:48;;;;;;;3.78;2.88;;;21.50;88.10;;;;;;5047798;28;20018;-57
2023/07/28 03:47:13;;;;;;;4.07;3.10;;;21.50;88.10;;;;;;5047203;28;20035;-57
2023/07/28 03:49:39;;;;;;;4.15;2.92;;;21.50;88.20;;;;;;5047189;28;20034;-57
2023/07/28 03:52:05;;;;;;;6.80;3.22;;;21.50;88.20;;;;;;5048403;28;20066;-56
2023/07/28 03:54:31;;;;;;;5.30;3.10;;;21.40;88.40;;;;;;5048302;28;20030;-57
2023/07/28 03:56:56;;;;;;;6.82;3.58;;;21.40;88.70;;;;;;5046871;28;20037;-56
2023/07/28 03:59:22;;;;;;;5.85;2.95;;;21.40;89.30;;;;;;5046765;28;20136;-56
2023/07/28 04:01:47;;;;;;;3.83;2.83;;;21.50;88.60;;;;;;5048031;28;20030;-57
2023/07/28 04:04:13;;;;;;;6.72;3.05;;;21.50;88.50;;;;;;5048034;28;20100;-56
2023/07/28 04:06:43;;;;;;;4.50;2.83;;;21.40;88.50;;;;;;5030091;28;20036;-57
2023/07/28 04:09:08;;;;;;;3.42;2.75;;;21.40;88.60;;;;;;5046600;28;20085;-57
2023/07/28 04:11:34;;;;;;;5.82;3.00;;;21.40;88.70;;;;;;5029976;28;20327;-57
2023/07/28 04:13:59;;;;;;;5.93;2.75;;;21.40;88.70;;;;;;5046441;28;20461;-57
2023/07/28 04:16:25;;;;;;;2.97;2.67;;;21.40;88.60;;;;;;5047643;28;20033;-56
2023/07/28 04:18:51;;;;;;;2.88;2.58;;;21.40;88.60;;;;;;5046479;28;20035;-57
2023/07/28 04:21:16;;;;;;;5.03;3.42;;;21.40;88.70;;;;;;5046269;28;20056;-57
2023/07/28 04:23:43;;;;;;;7.68;3.40;;;21.40;88.60;;;;;;5046072;28;20035;-56
2023/07/28 04:26:08;;;;;;;6.93;3.10;;;21.30;88.50;;;;;;5046442;28;20037;-57
2023/07/28 04:28:34;;;;;;;5.78;3.38;;;21.30;88.50;;;;;;5046410;28;20370;-57
2023/07/28 04:30:59;;;;;;;8.13;3.70;;;21.30;88.50;;;;;;5029686;28;20076;-56
2023/07/28 04:33:25;;;;;;;7.70;3.10;;;21.30;88.60;;;;;;5047642;28;20048;-57
2023/07/28 04:35:50;;;;;;;6.65;4.03;;;21.30;88.80;;;;;;5047229;28;20040;-56
2023/07/28 04:38:18;;;;;;;8.43;3.30;;;21.30;88.90;;;;;;5046236;28;20029;-56
2023/07/28 04:40:43;;;;;;;6.93;3.60;;;21.30;88.80;;;;;;5047250;28;20029;-56
2023/07/28 04:43:09;;;;;;;8.35;3.80;;;21.30;88.70;;;;;;5046024;28;20037;-57
2023/07/28 04:45:34;;;;;;;8.73;3.22;;;21.30;89.20;;;;;;5045975;28;20526;-57
2023/07/28 04:48:00;;;;;;;7.65;3.25;;;21.30;88.60;;;;;;5045887;28;20030;-57
2023/07/28 04:50:26;;;;;;;10.05;3.83;;;21.30;88.80;;;;;;5045953;28;20051;-57
2023/07/28 04:52:51;;;;;;;30.40;5.88;;;21.30;88.90;;;;;;5045754;28;20056;-56
2023/07/28 04:55:17;;;;;;;70.75;10.93;;;21.20;89.00;;;;;;5046787;28;20042;-56
2023/07/28 04:57:42;;;;;;;79.32;11.13;;;21.20;89.10;;;;;;5045657;28;20034;-56
2023/07/28 05:00:08;;;;;;;25.55;6.05;;;21.30;89.20;;;;;;5046976;28;20040;-56
2023/07/28 05:02:34;;;;;;;28.80;5.97;;;21.20;89.20;;;;;;5045487;28;20033;-56
2023/07/28 05:04:59;;;;;;;37.13;6.35;;;21.20;89.30;;;;;;5046854;28;20034;-56
2023/07/28 05:07:25;;;;;;;34.75;6.75;;;21.20;89.20;;;;;;5046861;28;20034;-55
2023/07/28 05:09:51;;;;;;;23.10;6.25;;;21.20;89.30;;;;;;5046784;28;20115;-56
2023/07/28 05:12:16;;;;;;;27.73;6.18;;;21.20;89.30;;;;;;5045442;28;20370;-56
2023/07/28 05:14:42;;;;;;;31.05;6.80;;;21.20;89.20;;;;;;5046806;28;20429;-56
2023/07/28 05:17:07;;;;;;;32.83;6.63;;;21.20;89.20;;;;;;5045142;28;20398;-56
2023/07/28 05:19:33;;;;;;;29.02;6.00;;;21.20;89.20;;;;;;5045330;28;20025;-56
2023/07/28 05:21:58;;;;;;;21.60;5.60;;;21.20;89.40;;;;;;5045137;28;20030;-56
2023/07/28 05:24:24;;;;;;;21.45;5.53;;;21.20;90.00;;;;;;5028699;28;20022;-56
2023/07/28 05:26:50;;;;;;;24.75;5.97;;;21.20;89.80;;;;;;5046454;28;20026;-56
2023/07/28 05:29:15;;;;;;;24.58;5.78;;;21.20;89.80;;;;;;5046490;28;20032;-56
2023/07/28 05:31:41;;;;;;;18.85;5.32;;;21.20;90.00;;;;;;5078354;28;20037;-56
2023/07/28 05:34:06;;;;;;;18.10;5.28;;;21.20;90.00;;;;;;5045599;28;20108;-56
2023/07/28 05:36:32;;;;;;;17.63;4.63;;;21.20;90.40;;;;;;5045091;28;20091;-55
2023/07/28 05:38:57;;;;;;;19.27;4.82;;;21.20;90.60;;;;;;5046168;28;20056;-56
2023/07/28 05:41:24;;;;;;;14.10;4.32;;;21.10;90.70;;;;;;5044706;28;20061;-56
2023/07/28 05:43:50;;;;;;;16.75;4.18;;;21.20;90.90;;;;;;5046222;28;20033;-56
2023/07/28 05:46:15;;;;;;;12.73;4.05;;;21.10;90.90;;;;;;5044700;28;20025;-56
2023/07/28 05:48:41;;;;;;;14.18;4.30;;;21.10;90.90;;;;;;5044922;28;20045;-56
2023/07/28 05:51:06;;;;;;;15.15;3.72;;;21.10;91.10;;;;;;5045961;28;20029;-56
2023/07/28 05:53:32;;;;;;;12.05;3.75;;;21.10;91.30;;;;;;5046148;28;20037;-56
2023/07/28 05:55:58;;;;;;;13.35;3.80;;;21.10;91.40;;;;;;5046080;28;20085;-56
2023/07/28 05:58:24;;;;;;;10.27;3.17;;;21.00;91.50;;;;;;5044942;28;20041;-56
2023/07/28 06:00:49;;;;;;;4.68;3.05;;;21.00;91.60;;;;;;5044488;28;20041;-56
2023/07/28 06:03:16;;;;;;;11.25;3.47;;;21.10;91.90;;;;;;5046006;28;20089;-56
2023/07/28 06:05:42;;;;;;;7.95;3.47;;;21.00;92.00;;;;;;5044809;28;20052;-56
2023/07/28 06:08:07;;;;;;;9.60;3.60;;;21.00;92.10;;;;;;5044562;28;20025;-56
2023/07/28 06:10:33;;;;;;;5.30;3.03;;;21.10;92.20;;;;;;5044612;28;20469;-56
2023/07/28 06:12:59;;;;;;;6.93;3.03;;;21.00;92.30;;;;;;5042652;28;20033;-56
2023/07/28 06:15:24;;;;;;;6.75;3.15;;;21.00;92.30;;;;;;5041154;28;20069;-56
2023/07/28 06:17:50;;;;;;;7.05;3.35;;;21.00;92.20;;;;;;5044154;28;20075;-56
2023/07/28 06:20:16;;;;;;;4.07;2.55;;;21.00;92.20;;;;;;5044629;28;20473;-56
2023/07/28 06:22:41;;;;;;;6.50;3.20;;;21.00;92.30;;;;;;5043484;28;20025;-56
2023/07/28 06:25:07;;;;;;;8.18;3.47;;;21.00;92.40;;;;;;5044346;28;20071;-56
2023/07/28 06:27:33;;;;;;;7.60;3.22;;;21.00;92.40;;;;;;5045670;28;20033;-56
2023/07/28 06:29:58;;;;;;;10.57;3.33;;;21.00;92.40;;;;;;5027767;28;20108;-56
2023/07/28 06:32:24;;;;;;;13.43;2.97;;;21.10;92.50;;;;;;5045517;28;20090;-56
2023/07/28 06:34:50;;;;;;;6.65;3.10;;;21.00;92.40;;;;;;5042850;28;20488;-57
2023/07/28 06:37:15;;;;;;;5.30;2.75;;;21.00;92.30;;;;;;5043605;28;20033;-56
2023/07/28 06:39:41;;;;;;;6.82;3.20;;;21.10;92.10;;;;;;5042615;28;20576;-56
2023/07/28 06:42:07;;;;;;;4.93;2.83;;;21.10;92.00;;;;;;5042439;28;20540;-56
2023/07/28 06:44:33;;;;;;;8.70;3.00;;;21.10;91.90;;;;;;5043599;28;20084;-56
2023/07/28 06:46:58;;;;;;;10.32;3.15;;;21.10;91.80;;;;;;5049158;28;20413;-56
2023/07/28 06:49:24;;;;;;;7.90;2.75;;;21.20;91.80;;;;;;5064525;28;20047;-56
2023/07/28 06:51:49;;;;;;;14.25;3.08;;;21.20;91.70;;;;;;5049229;28;20517;-56
2023/07/28 06:54:15;;;;;;;13.40;3.30;;;21.20;91.50;;;;;;5047804;28;20124;-56
2023/07/28 06:56:40;;;;;;;11.13;3.22;;;21.20;91.30;;;;;;5047915;28;20033;-56
2023/07/28 06:59:06;;;;;;;14.32;3.53;;;21.30;91.20;;;;;;5047608;28;20089;-56
2023/07/28 07:01:32;;;;;;;10.65;3.03;;;21.30;91.10;;;;;;5047681;28;20030;-56
2023/07/28 07:03:58;;;;;;;13.77;3.35;;;21.30;90.90;;;;;;5047869;28;20029;-56
2023/07/28 07:06:24;;;;;;;12.68;3.05;;;21.40;90.70;;;;;;5048895;28;20033;-57
2023/07/28 07:08:49;;;;;;;5.82;2.88;;;21.40;90.50;;;;;;5047671;28;20025;-56
2023/07/28 07:11:15;;;;;;;14.20;3.30;;;21.40;90.30;;;;;;5047589;28;20043;-56
2023/07/28 07:13:40;;;;;;;10.98;3.40;;;21.40;90.20;;;;;;5051638;28;20052;-56
2023/07/28 07:16:16;;;;;;;5.80;2.92;;;21.40;90.10;;;;;;5042311;28;20033;-56
2023/07/28 07:18:44;;;;;;;14.98;3.10;;;21.50;90.00;;;;;;5025861;28;20030;-56
2023/07/28 07:21:10;;;;;;;11.82;3.10;;;21.50;89.50;;;;;;5027679;28;20026;-56
2023/07/28 07:23:36;;;;;;;11.38;3.97;;;21.50;89.30;;;;;;5026420;28;20022;-56
2023/07/28 07:26:01;;;;;;;14.02;3.10;;;21.50;89.10;;;;;;5027781;28;20024;-56
2023/07/28 07:28:28;;;;;;;13.10;3.20;;;21.50;88.90;;;;;;5030526;28;20085;-56
2023/07/28 07:30:54;;;;;;;24.17;4.15;;;21.60;88.80;;;;;;5048381;28;20037;-56
2023/07/28 07:33:20;;;;;;;13.77;3.67;;;21.60;88.90;;;;;;5030739;28;20026;-56
2023/07/28 07:35:45;;;;;;;11.77;3.03;;;21.60;88.90;;;;;;5043250;28;20037;-56
2023/07/28 07:38:11;;;;;;;11.77;3.10;;;21.60;88.60;;;;;;5046097;28;20026;-56
2023/07/28 07:40:37;;;;;;;18.77;3.20;;;21.60;88.30;;;;;;5045878;28;20037;-56
2023/07/28 07:43:03;;;;;;;14.52;3.30;;;21.70;88.30;;;;;;5045951;28;20033;-56
2023/07/28 07:45:32;;;;;;;15.98;2.95;;;21.70;88.20;;;;;;5045311;28;20033;-56
2023/07/28 07:47:58;;;;;;;14.38;3.50;;;21.70;88.10;;;;;;5026882;28;20044;-57
2023/07/28 07:50:24;;;;;;;29.08;4.30;;;21.80;88.10;;;;;;5045452;28;20029;-56
2023/07/28 07:52:49;;;;;;;25.05;4.68;;;21.70;88.00;;;;;;5044254;28;20043;-56
2023/07/28 07:55:15;;;;;;;27.42;4.95;;;21.70;88.10;;;;;;5045843;28;20095;-56
2023/07/28 07:57:41;;;;;;;19.17;4.45;;;21.80;87.90;;;;;;5042946;28;20037;-56
2023/07/28 08:00:08;;;;;;;32.83;5.35;;;21.80;87.90;;;;;;5043421;28;20044;-56
2023/07/28 08:02:33;;;;;;;36.17;4.90;;;21.80;88.50;;;;;;5043890;28;20029;-56
2023/07/28 08:04:59;;;;;;;37.97;5.32;;;21.90;87.80;;;;;;5043391;28;20025;-55
2023/07/28 08:07:25;;;;;;;29.52;5.07;;;21.90;87.70;;;;;;5044123;28;20041;-56
2023/07/28 08:09:51;;;;;;;26.13;5.32;;;21.90;87.70;;;;;;5043161;28;20021;-55
2023/07/28 08:12:16;;;;;;;17.60;4.60;;;22.00;87.60;;;;;;5034702;28;20042;-56
2023/07/28 08:14:42;;;;;;;32.10;4.80;;;22.00;87.50;;;;;;5041021;28;20096;-56
2023/07/28 08:17:08;;;;;;;30.98;4.88;;;22.00;87.40;;;;;;5039555;28;20040;-56
2023/07/28 08:19:34;;;;;;;33.85;4.70;;;22.10;87.30;;;;;;5043041;28;20030;-56
2023/07/28 08:22:00;;;;;;;36.03;5.22;;;22.10;87.20;;;;;;5042301;28;20060;-56
2023/07/28 08:24:26;;;;;;;66.28;8.63;;;22.10;87.10;;;;;;5025613;28;20037;-56
2023/07/28 08:26:51;;;;;;;71.38;9.13;;;22.10;87.00;;;;;;5040565;28;20033;-55
2023/07/28 08:29:17;;;;;;;43.67;7.40;;;22.20;87.10;;;;;;5038322;28;20470;-56
2023/07/28 08:31:42;;;;;;;31.42;5.93;;;22.20;87.00;;;;;;5042324;28;20136;-56
2023/07/28 08:34:08;;;;;;;42.92;5.80;;;22.20;86.90;;;;;;5043734;28;20025;-56
2023/07/28 08:36:34;;;;;;;56.13;7.03;;;22.30;86.90;;;;;;5041730;28;20025;-56
2023/07/28 08:39:00;;;;;;;43.70;5.78;;;22.30;87.00;;;;;;5037305;28;20025;-56
2023/07/28 08:41:25;;;;;;;37.13;5.82;;;22.30;86.80;;;;;;5042681;28;20030;-56
2023/07/28 08:43:51;;;;;;;38.92;6.57;;;22.40;86.70;;;;;;5038947;28;20065;-56
2023/07/28 08:46:18;;;;;;;61.17;8.75;;;22.40;86.50;;;;;;5054722;28;20025;-56
2023/07/28 08:48:43;;;;;;;58.97;7.43;;;22.50;86.50;;;;;;5040586;28;20025;-56
2023/07/28 08:51:10;;;;;;;58.85;7.75;;;22.50;86.40;;;;;;5037590;28;20376;-56
2023/07/28 08:53:35;;;;;;;61.30;9.15;;;22.50;86.40;;;;;;5042153;28;20038;-56
2023/07/28 08:56:01;;;;;;;84.80;10.70;;;22.50;86.30;;;;;;5036938;28;20532;-56
2023/07/28 08:58:26;;;;;;;107.88;13.93;;;22.60;87.00;;;;;;5042380;28;20348;-56
2023/07/28 09:00:52;;;;;;;115.28;14.60;;;22.60;86.30;;;;;;5043573;28;20033;-56
2023/07/28 09:03:18;;;;;;;79.10;11.60;;;22.60;86.50;;;;;;5042101;28;20021;-56
2023/07/28 09:05:46;;;;;;;86.13;10.80;;;22.70;86.20;;;;;;5041347;28;20033;-56
2023/07/28 09:08:12;;;;;;;58.25;9.05;;;22.80;86.10;;;;;;5038448;28;20033;-56
2023/07/28 09:10:44;;;;;;;95.25;11.50;;;22.80;86.00;;;;;;5038588;28;20151;-56
2023/07/28 09:13:11;;;;;;;87.53;10.18;;;22.80;86.00;;;;;;5034726;28;20047;-56
2023/07/28 09:15:37;;;;;;;78.18;11.07;;;22.80;85.80;;;;;;5056262;28;20080;-56
2023/07/28 09:18:03;;;;;;;72.32;10.88;;;22.90;85.90;;;;;;5037752;28;20041;-56
2023/07/28 09:20:34;;;;;;;103.43;13.07;;;22.90;85.80;;;;;;5073392;28;20120;-56
2023/07/28 09:23:00;;;;;;;103.30;12.68;;;22.90;85.60;;;;;;5037283;28;20457;-56
2023/07/28 09:25:27;;;;;;;86.68;11.80;;;23.00;85.40;;;;;;5057894;28;20018;-56
2023/07/28 09:27:53;;;;;;;66.53;10.50;;;23.00;85.30;;;;;;5041985;28;20030;-56
2023/07/28 09:30:19;;;;;;;80.47;12.60;;;23.10;85.00;;;;;;5038221;28;20040;-56
2023/07/28 09:32:51;;;;;;;108.60;13.57;;;23.10;84.70;;;;;;5038218;28;20037;-57
2023/07/28 09:35:17;;;;;;;86.63;12.38;;;23.20;84.30;;;;;;5033517;28;20032;-56
2023/07/28 09:37:44;;;;;;;98.80;13.60;;;23.20;84.20;;;;;;5037122;28;20037;-56
2023/07/28 09:40:15;;;;;;;69.85;11.48;;;23.20;84.00;;;;;;5072648;28;20029;-56
2023/07/28 09:42:42;;;;;;;65.85;10.35;;;23.20;83.80;;;;;;5021509;28;20033;-56
2023/07/28 09:45:08;;;;;;;72.18;12.20;;;23.20;83.70;;;;;;5040728;28;20044;-56
2023/07/28 09:47:35;;;;;;;77.03;12.73;;;23.30;83.70;;;;;;5039185;28;20081;-56
2023/07/28 09:50:03;;;;;;;138.35;17.77;;;23.30;83.50;;;;;;5038298;28;20036;-56
2023/07/28 09:52:28;;;;;;;105.07;16.50;;;23.40;83.60;;;;;;5037861;28;20152;-56
2023/07/28 09:54:54;;;;;;;120.75;16.67;;;23.40;83.20;;;;;;5038406;28;20469;-52
2023/07/28 09:57:20;;;;;;;151.95;19.55;;;23.50;83.20;;;;;;5038211;28;20148;-56
2023/07/28 09:59:47;;;;;;;151.93;19.20;;;23.50;83.20;;;;;;5039956;28;20374;-56
2023/07/28 10:02:12;;;;;;;132.70;17.08;;;23.50;83.30;;;;;;5034516;28;20048;-56
2023/07/28 10:04:39;;;;;;;149.77;18.27;;;23.60;83.10;;;;;;5056731;28;20022;-56
2023/07/28 10:07:05;;;;;;;125.93;15.55;;;23.70;82.70;;;;;;5036821;28;20049;-56
2023/07/28 10:09:30;;;;;;;127.85;16.17;;;23.80;82.40;;;;;;5065642;28;20028;-56
2023/07/28 10:11:56;;;;;;;74.43;12.73;;;23.90;82.10;;;;;;5037710;28;20053;-56
2023/07/28 10:14:30;;;;;;;79.25;11.38;;;24.00;81.80;;;;;;5022658;28;20068;-56
2023/07/28 10:16:56;;;;;;;46.47;9.27;;;24.00;81.10;;;;;;5038912;28;20041;-56
2023/07/28 10:19:24;;;;;;;57.35;9.35;;;24.00;80.60;;;;;;5021217;28;20040;-56
2023/07/28 10:21:50;;;;;;;68.07;9.23;;;24.10;80.30;;;;;;5024759;28;20033;-56
2023/07/28 10:24:15;;;;;;;72.55;10.85;;;24.10;80.00;;;;;;5040764;28;20037;-56
2023/07/28 10:26:41;;;;;;;78.50;9.30;;;24.10;79.80;;;;;;5043234;28;20458;-56
2023/07/28 10:29:14;;;;;;;79.65;10.73;;;24.20;79.50;;;;;;5040140;28;20109;-56
2023/07/28 10:31:53;;;;;;;50.22;8.65;;;24.30;79.00;;;;;;5030188;28;20507;-56
2023/07/28 10:34:19;;;;;;;60.78;8.90;;;24.40;78.10;;;;;;5045213;28;20040;-56
2023/07/28 10:36:47;;;;;;;53.55;9.45;;;24.40;77.90;;;;;;5045298;28;20049;-56
2023/07/28 10:39:16;;;;;;;62.55;9.27;;;24.50;77.80;;;;;;5047414;28;20254;-56
2023/07/28 10:42:02;;;;;;;89.78;11.23;;;24.60;77.20;;;;;;5045370;28;20037;-56
2023/07/28 10:44:28;;;;;;;75.18;11.45;;;24.60;77.00;;;;;;5054624;28;20130;-56
2023/07/28 10:46:54;;;;;;;83.47;10.07;;;24.70;76.80;;;;;;5033039;28;20049;-56
2023/07/28 10:49:19;;;;;;;62.88;8.80;;;24.80;76.60;;;;;;5062131;28;20018;-57
2023/07/28 10:51:46;;;;;;;81.82;11.82;;;24.80;76.20;;;;;;5051012;28;20033;-56
2023/07/28 10:54:15;;;;;;;90.97;9.77;;;24.90;76.30;;;;;;5043303;28;20032;-58
2023/07/28 10:56:41;;;;;;;78.53;9.82;;;24.90;76.10;;;;;;5052358;28;20091;-56
2023/07/28 10:59:06;;;;;;;61.13;9.52;;;25.00;75.90;;;;;;5041275;28;20033;-56
2023/07/28 11:01:36;;;;;;;78.72;10.05;;;25.10;75.90;;;;;;5039677;28;20021;-56
2023/07/28 11:04:13;;;;;;;104.32;13.70;;;25.10;75.70;;;;;;5042072;28;20154;-56
2023/07/28 11:06:40;;;;;;;100.97;11.80;;;25.20;75.80;;;;;;5040879;28;20026;-56
2023/07/28 11:09:06;;;;;;;78.65;10.88;;;25.20;75.50;;;;;;5044542;28;20037;-56
2023/07/28 11:11:32;;;;;;;100.68;11.35;;;25.30;75.40;;;;;;5037676;28;20109;-56
2023/07/28 11:13:58;;;;;;;94.15;13.82;;;25.30;75.30;;;;;;5042962;28;20037;-56
2023/07/28 11:16:23;;;;;;;71.43;10.25;;;25.30;75.20;;;;;;5061654;28;20120;-56
2023/07/28 11:18:49;;;;;;;89.82;11.52;;;25.40;74.80;;;;;;5037847;28;20551;-56
2023/07/28 11:21:17;;;;;;;70.70;10.20;;;25.40;74.80;;;;;;5041690;28;20481;-56
2023/07/28 11:23:46;;;;;;;73.38;10.25;;;25.40;74.40;;;;;;5042463;28;20526;-56
2023/07/28 11:26:11;;;;;;;80.25;11.02;;;25.40;74.10;;;;;;5034773;28;20049;-56
2023/07/28 11:28:38;;;;;;;80.68;11.07;;;25.40;74.20;;;;;;5042818;28;20021;-56
2023/07/28 11:31:04;;;;;;;87.75;12.48;;;25.40;74.10;;;;;;5042485;28;20029;-56
2023/07/28 11:33:29;;;;;;;82.75;11.00;;;25.50;74.00;;;;;;5076045;28;20037;-56
2023/07/28 11:35:55;;;;;;;77.35;11.35;;;25.50;73.60;;;;;;5046829;28;20025;-56
2023/07/28 11:38:20;;;;;;;83.80;11.57;;;25.60;73.40;;;;;;5026643;28;20030;-56
2023/07/28 11:40:46;;;;;;;63.10;10.63;;;25.60;73.30;;;;;;5030742;28;20045;-55
2023/07/28 11:43:11;;;;;;;81.15;10.48;;;25.60;73.30;;;;;;5028415;28;20026;-56
2023/07/28 11:45:37;;;;;;;86.38;10.30;;;25.60;73.20;;;;;;5034468;28;20045;-56
2023/07/28 11:48:06;;;;;;;69.88;9.40;;;25.60;73.50;;;;;;5066501;28;20059;-56
2023/07/28 11:50:39;;;;;;;76.47;10.95;;;25.70;73.50;;;;;;5054539;28;20025;-56
2023/07/28 11:53:05;;;;;;;80.65;11.48;;;25.80;73.40;;;;;;5046867;28;20116;-56
2023/07/28 11:55:31;;;;;;;109.35;11.82;;;25.80;73.30;;;;;;5044953;28;20029;-56
2023/07/28 11:57:57;;;;;;;54.67;9.05;;;25.90;73.30;;;;;;5046810;28;20037;-56
2023/07/28 12:00:28;;;;;;;64.85;9.52;;;26.00;72.90;;;;;;5049947;28;20040;-56
2023/07/28 12:03:20;;;;;;;60.75;8.60;;;26.10;72.70;;;;;;5046685;28;20030;-56
2023/07/28 12:06:04;;;;;;;51.72;8.23;;;26.10;72.30;;;;;;5043721;28;20469;-56
2023/07/28 12:08:39;;;;;;;62.75;9.20;;;26.20;72.10;;;;;;5045458;28;20025;-56
2023/07/28 12:11:06;;;;;;;57.17;10.15;;;26.30;72.00;;;;;;5060646;28;20047;-56
2023/07/28 12:13:32;;;;;;;63.13;11.10;;;26.40;71.80;;;;;;5047826;28;20041;-56
2023/07/28 12:15:57;;;;;;;88.35;10.00;;;26.50;71.70;;;;;;5062989;28;20021;-56
2023/07/28 12:18:23;;;;;;;84.15;9.60;;;26.50;71.00;;;;;;5050527;28;20096;-56
2023/07/28 12:20:51;;;;;;;122.05;13.60;;;26.60;71.00;;;;;;5051603;28;20044;-56
2023/07/28 12:23:18;;;;;;;116.90;12.63;;;26.70;70.90;;;;;;5053596;28;21298;-56
2023/07/28 12:25:43;;;;;;;76.57;11.00;;;26.70;70.80;;;;;;5057105;28;20028;-56
2023/07/28 12:28:09;;;;;;;60.78;9.95;;;26.70;70.90;;;;;;5062168;28;20021;-56
2023/07/28 12:30:35;;;;;;;94.97;12.85;;;26.70;70.80;;;;;;5047491;28;20493;-56
2023/07/28 12:33:00;;;;;;;92.50;11.68;;;26.80;71.00;;;;;;5059214;28;20465;-56